Ocean Falls, Canada
Current Conditions -  °F | °C
As of 3:00 AM on Saturday 25 Oct 2014 (Local Time) from CBBC Reporting Station
Scattered Clouds Scattered Clouds  
Wind Chill:   Ceiling: Unl
Heat Index:   Visibility: 9mi
Dew Point:   Wind: 0mph
Humidity: 100%   Direction: NA
Pressure: 29.76"   Gusts: NA
Location:  52.35°N, 127.7°W
Report Text: CBBC 251000Z AUTO 00000KT 9SM SCT110 03/03 A2976 RMK PRESFR SLP080
Loading
Personal Weather Stations






























Interactive Weather Map
Tropical Storm Tracking
New forecast layout! Learn more

10-Day Weather Forecast

Advertisements
Track Severe Weather on mobile